Time;durP1;ratioP1;P1;durP2;ratioP2;P2;SDS_P1;SDS_P2;PMS_P1;PMS_P2;Temp;Humidity;BMP_temperature;BMP_pressure;BME280_temperature;BME280_humidity;BME280_pressure;Samples;Min_cycle;Max_cycle;Signal;HPM_P1;HPM_P2
2022/08/31 00:04:56;;;;;;;2.67;2.47;;;;;;;18.53;60.63;101774.44;3592294;39;20063;-62
2022/08/31 00:07:23;;;;;;;2.60;2.40;;;;;;;18.38;61.08;101753.88;3592979;39;20079;-63
2022/08/31 00:09:49;;;;;;;4.93;2.33;;;;;;;18.68;61.57;101814.06;3588635;39;20128;-63
2022/08/31 00:12:14;;;;;;;2.75;2.55;;;;;;;18.66;60.95;101807.84;3591949;39;20059;-64
2022/08/31 00:14:40;;;;;;;3.25;2.42;;;;;;;18.65;61.29;101811.59;3591003;39;20052;-61
2022/08/31 00:17:06;;;;;;;3.22;2.58;;;;;;;18.58;61.43;101804.88;3593217;39;20054;-61
2022/08/31 00:19:31;;;;;;;5.97;2.28;;;;;;;18.59;61.56;101800.31;3593008;39;20056;-63
2022/08/31 00:21:57;;;;;;;2.85;2.20;;;;;;;18.57;61.65;101805.88;3589432;39;20060;-64
2022/08/31 00:24:23;;;;;;;4.88;2.88;;;;;;;18.32;61.68;101766.97;3591388;39;20319;-62
2022/08/31 00:26:48;;;;;;;4.80;2.60;;;;;;;18.55;62.38;101813.28;3590244;39;20063;-61
2022/08/31 00:29:14;;;;;;;5.68;2.40;;;;;;;18.46;62.16;101798.56;3590131;39;20044;-62
2022/08/31 00:31:40;;;;;;;4.22;2.78;;;;;;;18.51;62.63;101809.94;3591356;39;20062;-62
2022/08/31 00:34:06;;;;;;;6.93;2.60;;;;;;;18.47;62.02;101803.00;3590996;39;20064;-62
2022/08/31 00:36:32;;;;;;;3.33;3.03;;;;;;;18.54;62.79;101814.28;3591367;39;20055;-62
2022/08/31 00:38:57;;;;;;;4.18;2.78;;;;;;;18.49;62.48;101805.59;3591794;39;20609;-63
2022/08/31 00:41:29;;;;;;;3.20;2.65;;;;;;;18.54;62.35;101814.28;3590429;39;20055;-62
2022/08/31 00:44:03;;;;;;;3.00;2.60;;;;;;;18.53;63.02;101818.00;3588282;39;20402;-62
2022/08/31 00:46:35;;;;;;;3.15;2.40;;;;;;;18.51;62.82;101809.94;3590686;39;20059;-62
2022/08/31 00:49:15;;;;;;;3.25;2.58;;;;;;;18.51;62.92;101814.53;3590619;39;20075;-62
2022/08/31 00:51:54;;;;;;;2.88;2.25;;;;;;;18.50;62.86;101807.34;3587664;39;20125;-62
2022/08/31 00:54:32;;;;;;;3.53;2.47;;;;;;;18.53;62.77;101807.97;3590590;39;20125;-62
2022/08/31 00:56:58;;;;;;;4.78;2.75;;;;;;;18.38;62.39;101781.09;3590677;39;20091;-62
2022/08/31 00:59:26;;;;;;;2.90;2.60;;;;;;;18.55;63.00;101806.00;3591641;39;20059;-62
2022/08/31 01:01:53;;;;;;;3.08;2.20;;;;;;;18.56;62.44;101809.59;3590251;39;20087;-62
2022/08/31 01:04:19;;;;;;;3.83;2.80;;;;;;;18.58;62.31;101804.00;3591173;39;20075;-62
2022/08/31 01:06:48;;;;;;;4.22;2.40;;;;;;;18.58;61.96;101810.31;3580808;39;20390;-62
2022/08/31 01:09:15;;;;;;;3.40;2.70;;;;;;;18.57;62.52;101814.03;3588887;39;20065;-63
2022/08/31 01:11:42;;;;;;;3.95;2.40;;;;;;;18.57;62.79;101808.59;3589566;39;20117;-62
2022/08/31 01:14:08;;;;;;;4.75;2.67;;;;;;;18.55;62.66;101805.13;3590394;39;20092;-62
2022/08/31 01:16:41;;;;;;;5.65;2.50;;;;;;;18.55;61.98;101806.00;3589511;39;20063;-62
2022/08/31 01:19:37;;;;;;;3.97;2.35;;;;;;;18.53;62.84;101801.66;3588476;39;20088;-62
2022/08/31 01:22:43;;;;;;;3.33;2.35;;;;;;;18.49;62.14;101802.88;3591185;39;20040;-62
2022/08/31 01:25:13;;;;;;;3.38;2.10;;;;;;;18.50;62.05;101800.06;3589247;39;20051;-62
2022/08/31 01:27:39;;;;;;;3.83;2.38;;;;;;;18.49;62.67;101800.16;3589077;39;20055;-62
2022/08/31 01:30:10;;;;;;;3.58;2.17;;;;;;;18.46;62.18;101795.00;3588409;39;20462;-62
2022/08/31 01:32:38;;;;;;;2.70;2.30;;;;;;;18.30;62.59;101768.97;3590606;39;20071;-64
2022/08/31 01:35:06;;;;;;;2.60;2.40;;;;;;;18.49;62.65;101806.50;3588310;39;20068;-62
2022/08/31 01:37:32;;;;;;;3.47;2.30;;;;;;;18.47;62.37;101802.16;3590983;39;20048;-62
2022/08/31 01:39:58;;;;;;;3.08;2.13;;;;;;;18.45;62.00;101799.53;3588621;39;20067;-62
2022/08/31 01:42:24;;;;;;;1.92;1.83;;;;;;;18.44;62.35;101807.84;3588999;39;20063;-62
2022/08/31 01:44:49;;;;;;;4.35;2.47;;;;;;;18.42;62.45;101804.38;3591448;39;20084;-62
2022/08/31 01:47:15;;;;;;;3.67;2.20;;;;;;;18.40;62.12;101811.81;3591954;39;20382;-62
2022/08/31 01:49:40;;;;;;;3.80;2.30;;;;;;;18.39;62.53;101810.91;3591091;39;20051;-62
2022/08/31 01:52:06;;;;;;;2.88;2.38;;;;;;;18.35;63.09;101812.16;3591176;39;20082;-62
2022/08/31 01:54:32;;;;;;;3.70;2.30;;;;;;;18.32;62.83;101809.66;3592213;39;20051;-62
2022/08/31 01:57:00;;;;;;;3.03;1.98;;;;;;;18.27;63.06;101801.88;3592150;39;20063;-62
2022/08/31 01:59:25;;;;;;;2.72;2.53;;;;;;;18.24;62.89;101812.16;3590163;39;20083;-62
2022/08/31 02:01:55;;;;;;;2.60;2.35;;;;;;;18.26;63.38;101811.00;3588685;39;20141;-62
2022/08/31 02:04:25;;;;;;;4.50;2.92;;;;;;;18.16;62.82;101799.13;3589887;39;20283;-62
2022/08/31 02:06:56;;;;;;;2.40;2.20;;;;;;;18.24;63.30;101818.44;3589542;39;20052;-64
2022/08/31 02:09:23;;;;;;;2.95;2.75;;;;;;;18.22;63.37;101817.69;3587583;39;20325;-62
2022/08/31 02:11:49;;;;;;;4.32;2.40;;;;;;;17.99;63.20;101781.41;3587150;39;20080;-62
2022/08/31 02:14:16;;;;;;;3.17;2.88;;;;;;;18.18;63.80;101823.50;3587330;39;20508;-62
2022/08/31 02:16:42;;;;;;;2.63;2.40;;;;;;;18.16;63.26;101814.59;3587320;39;20063;-62
2022/08/31 02:19:08;;;;;;;4.03;2.50;;;;;;;18.12;63.27;101803.09;3588927;39;20091;-63
2022/08/31 02:21:35;;;;;;;2.45;2.15;;;;;;;18.13;63.35;101818.41;3588137;39;20083;-63
2022/08/31 02:24:00;;;;;;;2.92;2.60;;;;;;;18.10;63.19;101818.66;3588751;39;20064;-62
2022/08/31 02:26:26;;;;;;;2.50;2.30;;;;;;;18.08;63.35;101817.91;3586206;39;20114;-62
2022/08/31 02:28:52;;;;;;;6.22;2.53;;;;;;;18.07;63.77;101829.78;3586790;39;20060;-62
2022/08/31 02:31:18;;;;;;;5.25;2.67;;;;;;;18.04;64.04;101827.28;3587622;39;20071;-62
2022/08/31 02:33:44;;;;;;;2.60;2.40;;;;;;;18.02;64.33;101829.28;3587127;39;20052;-62
2022/08/31 02:36:10;;;;;;;3.80;2.40;;;;;;;17.97;64.43;101824.19;3589400;39;20062;-62
2022/08/31 02:38:36;;;;;;;2.53;2.33;;;;;;;17.98;63.83;101822.31;3586925;39;20048;-63
2022/08/31 02:41:03;;;;;;;3.70;2.45;;;;;;;17.96;64.22;101824.31;3588487;39;20060;-62
2022/08/31 02:43:28;;;;;;;3.20;2.17;;;;;;;17.59;64.07;101768.13;3585484;39;20056;-62
2022/08/31 02:45:54;;;;;;;3.17;2.47;;;;;;;17.90;64.76;101822.06;3588539;39;20306;-63
2022/08/31 02:48:21;;;;;;;3.35;2.60;;;;;;;17.89;64.09;101820.31;3590572;39;20055;-62
2022/08/31 02:50:50;;;;;;;3.33;2.60;;;;;;;17.84;64.28;101816.09;3588589;39;20060;-62
2022/08/31 02:53:21;;;;;;;3.13;2.67;;;;;;;17.83;64.17;101816.22;3588092;39;20056;-62
2022/08/31 02:55:48;;;;;;;4.70;2.90;;;;;;;17.64;64.31;101782.25;3589896;39;20063;-63
2022/08/31 02:58:14;;;;;;;4.55;2.60;;;;;;;17.77;64.17;101809.41;3588429;39;20048;-63
2022/08/31 03:00:46;;;;;;;3.55;2.53;;;;;;;17.76;64.27;101813.09;3588458;39;20386;-63
2022/08/31 03:03:12;;;;;;;2.80;2.58;;;;;;;17.72;64.55;101817.00;3588542;39;20052;-64
2022/08/31 03:05:38;;;;;;;5.07;2.75;;;;;;;17.70;64.64;101824.44;3591184;39;20172;-64
2022/08/31 03:08:04;;;;;;;3.03;2.40;;;;;;;17.64;65.13;101817.59;3588076;39;20064;-64
2022/08/31 03:10:29;;;;;;;2.85;2.65;;;;;;;17.63;65.23;101818.59;3586745;39;20489;-64
2022/08/31 03:12:55;;;;;;;2.63;2.42;;;;;;;17.63;65.26;101821.31;3587251;39;20090;-64
2022/08/31 03:15:24;;;;;;;6.30;3.00;;;;;;;17.59;64.66;101808.03;3589107;39;20086;-64
2022/08/31 03:17:50;;;;;;;4.22;2.88;;;;;;;17.56;65.48;101813.72;3586554;39;20067;-64
2022/08/31 03:20:20;;;;;;;4.63;2.95;;;;;;;17.52;65.44;101809.50;3586689;39;20350;-64
2022/08/31 03:22:47;;;;;;;4.22;2.92;;;;;;;17.50;64.96;101808.72;3587539;39;20052;-64
2022/08/31 03:25:14;;;;;;;3.55;2.45;;;;;;;17.46;65.72;101812.69;3588443;39;20313;-64
2022/08/31 03:27:40;;;;;;;2.80;2.60;;;;;;;17.42;65.38;101819.34;3586516;39;20052;-64
2022/08/31 03:30:11;;;;;;;3.97;2.60;;;;;;;17.39;65.79;101826.72;3587984;39;20079;-64
2022/08/31 03:32:37;;;;;;;3.75;3.00;;;;;;;17.35;65.18;101824.38;3590753;39;20047;-64
2022/08/31 03:35:04;;;;;;;3.13;2.75;;;;;;;17.09;65.32;101774.66;3589512;39;20097;-64
2022/08/31 03:37:30;;;;;;;3.13;2.60;;;;;;;17.30;65.71;101811.09;3587320;39;20059;-64
2022/08/31 03:39:56;;;;;;;4.90;2.65;;;;;;;17.12;65.73;101775.28;3585685;39;20110;-64
2022/08/31 03:42:22;;;;;;;3.13;2.83;;;;;;;16.97;65.59;101761.97;3588387;39;20087;-64
2022/08/31 03:44:48;;;;;;;3.00;2.67;;;;;;;17.28;65.66;101823.91;3587708;39;20391;-64
2022/08/31 03:47:15;;;;;;;2.80;2.60;;;;;;;17.27;65.91;101824.06;3586763;39;20052;-63
2022/08/31 03:49:41;;;;;;;4.38;2.80;;;;;;;17.23;65.45;101822.56;3587524;39;20056;-64
2022/08/31 03:52:07;;;;;;;5.90;2.83;;;;;;;17.21;65.45;101821.78;3589271;39;20071;-64
2022/08/31 03:54:34;;;;;;;4.28;2.75;;;;;;;17.13;65.13;101811.50;3585807;39;20302;-64
2022/08/31 03:57:00;;;;;;;4.28;2.88;;;;;;;17.14;66.13;101826.81;3587877;39;20124;-64
2022/08/31 03:59:26;;;;;;;4.50;2.63;;;;;;;16.85;66.09;101783.63;3587287;39;20067;-64
2022/08/31 04:01:51;;;;;;;4.78;2.80;;;;;;;17.13;66.06;101825.09;3587949;39;20047;-64
2022/08/31 04:04:17;;;;;;;3.20;2.90;;;;;;;17.08;65.53;101810.97;3587696;39;20048;-64
2022/08/31 04:06:44;;;;;;;6.13;3.03;;;;;;;17.11;65.33;101822.47;3590779;39;20136;-64
2022/08/31 04:09:10;;;;;;;2.95;2.75;;;;;;;16.63;65.39;101745.41;3589184;39;20116;-64
2022/08/31 04:11:41;;;;;;;5.18;2.42;;;;;;;17.07;65.38;101828.25;3586835;39;21832;-64
2022/08/31 04:14:07;;;;;;;3.72;2.80;;;;;;;17.05;65.26;101820.19;3588661;39;20063;-63
2022/08/31 04:16:35;;;;;;;3.70;2.53;;;;;;;17.04;65.03;101814.88;3590363;39;20055;-63
2022/08/31 04:19:02;;;;;;;2.78;2.30;;;;;;;17.07;64.69;101825.53;3590762;39;20053;-63
2022/08/31 04:21:30;;;;;;;2.85;2.55;;;;;;;17.01;64.79;101817.81;3590923;39;20137;-63
2022/08/31 04:23:56;;;;;;;2.20;2.00;;;;;;;17.05;64.88;101830.19;3590849;39;20130;-63
2022/08/31 04:26:31;;;;;;;3.63;2.30;;;;;;;17.05;64.62;101827.47;3591363;39;20064;-63
2022/08/31 04:28:56;;;;;;;2.13;1.98;;;;;;;17.02;64.43;101833.13;3587076;39;20064;-63
2022/08/31 04:31:25;;;;;;;3.20;2.65;;;;;;;16.92;64.48;101828.38;3589895;39;20279;-63
2022/08/31 04:33:52;;;;;;;6.22;2.33;;;;;;;16.90;63.74;101830.34;3589430;39;20059;-63
2022/08/31 04:36:23;;;;;;;3.20;2.40;;;;;;;16.96;64.07;101833.59;3590288;39;20330;-62
2022/08/31 04:38:52;;;;;;;5.47;4.57;;;;;;;16.96;63.63;101839.88;3590109;39;20052;-63
2022/08/31 04:41:23;;;;;;;3.78;2.72;;;;;;;16.92;63.55;101839.25;3588628;39;20128;-63
2022/08/31 04:43:53;;;;;;;2.45;2.25;;;;;;;16.75;63.56;101804.31;3591189;39;20467;-63
2022/08/31 04:46:20;;;;;;;3.97;2.10;;;;;;;16.86;63.68;101828.81;3589809;39;20087;-62
2022/08/31 04:48:46;;;;;;;2.17;2.03;;;;;;;16.67;63.44;101806.66;3591782;39;20099;-63
2022/08/31 04:51:20;;;;;;;2.45;2.17;;;;;;;16.80;63.56;101833.81;3590076;39;20095;-63
2022/08/31 04:53:47;;;;;;;2.80;2.47;;;;;;;16.77;63.76;101840.34;3591088;39;20052;-63
2022/08/31 04:56:18;;;;;;;2.42;2.22;;;;;;;16.74;63.79;101845.94;3589735;39;20608;-62
2022/08/31 04:58:48;;;;;;;3.47;2.53;;;;;;;16.70;63.03;101839.88;3590504;39;20099;-63
2022/08/31 05:01:20;;;;;;;3.03;2.33;;;;;;;16.68;63.62;101847.28;3588804;39;20048;-63
2022/08/31 05:03:51;;;;;;;2.97;2.50;;;;;;;16.63;63.45;101840.44;3588426;39;20066;-63
2022/08/31 05:06:22;;;;;;;3.05;2.53;;;;;;;16.60;63.57;101843.38;3587214;39;20048;-63
2022/08/31 05:08:58;;;;;;;3.30;2.28;;;;;;;16.58;63.20;101842.59;3589365;39;20055;-63
2022/08/31 05:11:27;;;;;;;4.88;2.50;;;;;;;16.56;63.21;101841.88;3588501;39;20283;-63
2022/08/31 05:13:56;;;;;;;3.45;2.45;;;;;;;16.54;63.84;101847.38;3589537;39;20055;-62
2022/08/31 05:16:22;;;;;;;2.70;2.38;;;;;;;16.45;63.65;101835.31;3589306;39;20127;-62
2022/08/31 05:18:49;;;;;;;2.58;2.10;;;;;;;16.48;64.06;101843.25;3589583;39;20055;-62
2022/08/31 05:21:26;;;;;;;2.63;2.10;;;;;;;16.46;63.19;101852.50;3589262;39;20067;-62
2022/08/31 05:23:55;;;;;;;4.18;2.42;;;;;;;16.41;63.81;101847.38;3589109;39;20051;-63
2022/08/31 05:26:26;;;;;;;4.72;2.60;;;;;;;16.36;63.51;101852.25;3588440;39;20100;-63
2022/08/31 05:28:54;;;;;;;9.48;2.83;;;;;;;16.31;63.83;101848.13;3591509;39;20194;-63
2022/08/31 05:31:20;;;;;;;5.00;2.50;;;;;;;16.34;63.87;101858.78;3587712;39;20044;-63
2022/08/31 05:33:46;;;;;;;3.15;2.30;;;;;;;16.31;63.49;101857.16;3591625;39;20352;-63
2022/08/31 05:36:12;;;;;;;3.88;2.10;;;;;;;16.29;63.46;101853.66;3588697;39;20051;-62
2022/08/31 05:38:38;;;;;;;3.78;2.22;;;;;;;16.32;63.32;101856.16;3589852;39;20161;-63
2022/08/31 05:41:05;;;;;;;5.15;2.13;;;;;;;16.32;62.67;101858.88;3588378;39;20310;-63
2022/08/31 05:43:33;;;;;;;5.00;2.10;;;;;;;16.34;62.59;101867.78;3589697;39;20051;-64
2022/08/31 05:45:59;;;;;;;2.38;2.17;;;;;;;16.39;62.25;101865.59;3591230;39;20066;-63
2022/08/31 05:48:32;;;;;;;5.95;2.60;;;;;;;16.28;62.24;101837.50;3589879;39;20091;-63
2022/08/31 05:51:02;;;;;;;4.35;2.10;;;;;;;16.38;62.11;101866.59;3590039;39;20331;-61
2022/08/31 05:53:28;;;;;;;8.10;2.15;;;;;;;16.44;61.63;101860.72;3588493;39;20052;-61
2022/08/31 05:56:09;;;;;;;4.35;2.17;;;;;;;16.50;61.38;101864.00;3590252;39;20062;-61
2022/08/31 05:58:38;;;;;;;4.30;1.90;;;;;;;16.52;61.94;101862.03;3586583;39;20055;-62
2022/08/31 06:01:12;;;;;;;5.82;2.15;;;;;;;16.52;60.89;101872.88;3589090;39;20062;-62
2022/08/31 06:03:38;;;;;;;4.18;2.08;;;;;;;16.56;61.65;101874.44;3588468;39;20071;-62
2022/08/31 06:06:03;;;;;;;2.33;1.88;;;;;;;16.53;60.30;101863.78;3590303;39;20063;-62
2022/08/31 06:08:29;;;;;;;3.55;1.98;;;;;;;16.61;60.68;101883.09;3588612;39;20372;-62
2022/08/31 06:10:58;;;;;;;3.88;1.75;;;;;;;16.65;60.04;101874.66;3589601;39;20406;-62
2022/08/31 06:13:25;;;;;;;5.10;1.92;;;;;;;16.69;60.07;101870.72;3587986;39;20048;-62
2022/08/31 06:15:51;;;;;;;4.75;1.50;;;;;;;16.68;59.67;101877.16;3589987;39;20056;-62
2022/08/31 06:18:19;;;;;;;3.33;2.20;;;;;;;16.66;59.53;101864.66;3588792;39;20064;-62
2022/08/31 06:20:45;;;;;;;2.13;1.85;;;;;;;16.73;59.09;101873.22;3589397;39;20868;-62
2022/08/31 06:23:11;;;;;;;3.63;2.10;;;;;;;16.74;59.05;101878.53;3586193;39;20121;-62
2022/08/31 06:25:36;;;;;;;2.70;1.98;;;;;;;16.80;59.84;101878.13;3589400;39;20074;-61
2022/08/31 06:28:08;;;;;;;4.38;2.20;;;;;;;16.79;59.16;101876.41;3588002;39;20056;-63
2022/08/31 06:30:38;;;;;;;2.50;2.00;;;;;;;16.89;59.22;101882.03;3590340;39;20097;-63
2022/08/31 06:33:05;;;;;;;2.03;1.83;;;;;;;17.02;58.18;101895.63;3592018;39;20043;-63
2022/08/31 06:35:32;;;;;;;3.13;1.83;;;;;;;17.09;57.95;101891.47;3586807;40;20145;-64
2022/08/31 06:37:58;;;;;;;8.27;1.90;;;;;;;16.96;58.28;101855.31;3592930;39;20068;-63
2022/08/31 06:40:27;;;;;;;2.58;2.08;;;;;;;17.24;57.33;101892.22;3591709;39;20063;-63
2022/08/31 06:42:53;;;;;;;3.78;2.17;;;;;;;17.32;57.42;101897.97;3592056;39;20044;-61
2022/08/31 06:45:18;;;;;;;2.78;1.80;;;;;;;17.38;56.21;101897.53;3590171;39;20070;-61
2022/08/31 06:47:45;;;;;;;3.42;2.10;;;;;;;17.44;55.77;101898.91;3594145;39;20099;-61
2022/08/31 06:50:12;;;;;;;4.45;2.17;;;;;;;17.58;56.11;101902.34;3590354;39;20284;-63
2022/08/31 06:52:38;;;;;;;2.53;1.75;;;;;;;17.71;55.49;101901.44;3581439;39;20048;-61
2022/08/31 06:55:04;;;;;;;6.55;2.00;;;;;;;17.73;55.47;101894.00;3589664;39;20050;-61
2022/08/31 06:57:30;;;;;;;2.28;2.00;;;;;;;17.82;55.82;101898.78;3590958;39;20059;-61
2022/08/31 06:59:56;;;;;;;4.97;1.83;;;;;;;17.90;55.03;101909.09;3591823;39;20157;-63
2022/08/31 07:02:21;;;;;;;3.47;2.15;;;;;;;18.10;54.67;101908.44;3589896;39;20064;-62
2022/08/31 07:04:47;;;;;;;4.05;1.98;;;;;;;18.22;54.90;101904.78;3592893;39;20109;-63
2022/08/31 07:07:13;;;;;;;2.45;1.90;;;;;;;18.38;54.24;101901.75;3590780;39;20240;-63
2022/08/31 07:09:39;;;;;;;4.90;1.80;;;;;;;18.53;53.36;101906.00;3591403;39;20060;-63
2022/08/31 07:12:06;;;;;;;4.10;1.88;;;;;;;18.59;52.40;101899.22;3588585;39;20161;-63
2022/08/31 07:14:33;;;;;;;5.43;2.03;;;;;;;18.52;52.96;101878.88;3590037;39;20186;-63
2022/08/31 07:17:01;;;;;;;2.67;1.67;;;;;;;18.83;52.25;101911.91;3593209;39;20058;-63
2022/08/31 07:19:27;;;;;;;1.73;1.60;;;;;;;18.90;52.44;101910.41;3591664;39;20107;-63
2022/08/31 07:21:58;;;;;;;2.33;1.60;;;;;;;19.06;51.35;101908.22;3591743;39;20060;-63
2022/08/31 07:24:29;;;;;;;3.55;1.92;;;;;;;19.16;51.27;101903.75;3592592;39;20060;-63
2022/08/31 07:27:01;;;;;;;2.63;1.80;;;;;;;19.35;51.36;101905.84;3591522;39;20051;-63
2022/08/31 07:29:31;;;;;;;1.98;1.77;;;;;;;19.46;51.40;101905.81;3591432;39;20310;-63
2022/08/31 07:31:58;;;;;;;4.07;1.90;;;;;;;19.50;50.01;101911.88;3589959;39;20096;-63
2022/08/31 07:34:28;;;;;;;2.80;1.85;;;;;;;19.52;50.26;101909.91;3589807;39;20098;-63
2022/08/31 07:42:33;;;;;;;2.58;1.60;;;;;;;19.87;48.61;101908.88;3588915;39;20122;-63
2022/08/31 07:45:04;;;;;;;3.22;1.90;;;;;;;19.87;49.18;101908.88;3588403;39;20067;-64
2022/08/31 07:47:31;;;;;;;2.33;2.13;;;;;;;20.04;49.86;101911.03;3589580;39;20051;-64
2022/08/31 07:49:59;;;;;;;4.95;1.67;;;;;;;20.20;49.34;101920.66;3588166;39;20109;-64
2022/08/31 07:52:30;;;;;;;3.72;2.25;;;;;;;20.33;48.56;101908.56;3589155;39;20063;-64
2022/08/31 07:55:10;;;;;;;2.78;1.83;;;;;;;20.41;48.69;101916.94;3592944;39;20052;-64
2022/08/31 07:57:43;;;;;;;1.70;1.60;;;;;;;20.49;48.18;101915.41;3580886;40;20401;-64
2022/08/31 08:00:19;;;;;;;5.13;2.00;;;;;;;20.72;48.59;101916.19;3589433;39;20476;-65
2022/08/31 08:02:46;;;;;;;2.15;1.67;;;;;;;20.97;48.48;101913.03;3592716;39;20059;-64
2022/08/31 08:05:20;;;;;;;5.15;1.70;;;;;;;21.18;47.83;101912.97;3591078;39;20373;-64
2022/08/31 08:07:52;;;;;;;2.67;1.63;;;;;;;21.32;47.16;101914.47;3590083;39;20048;-64
2022/08/31 08:10:22;;;;;;;3.08;2.05;;;;;;;21.42;46.88;101920.00;3591292;39;20070;-64
2022/08/31 08:12:55;;;;;;;4.95;1.73;;;;;;;21.46;47.42;101916.84;3591038;39;20048;-64
2022/08/31 08:15:23;;;;;;;2.75;1.75;;;;;;;21.63;47.37;101923.53;3590755;39;20074;-64
2022/08/31 08:17:50;;;;;;;4.18;2.50;;;;;;;21.79;46.25;101926.59;3587245;39;20117;-64
2022/08/31 08:20:15;;;;;;;4.47;2.03;;;;;;;21.91;46.67;101920.97;3587687;39;20052;-64
2022/08/31 08:22:42;;;;;;;3.55;1.90;;;;;;;21.99;46.30;101924.75;3588163;39;20118;-63
2022/08/31 08:25:10;;;;;;;2.90;1.90;;;;;;;21.90;45.38;101908.31;3580940;40;20064;-64
2022/08/31 08:27:36;;;;;;;3.65;2.05;;;;;;;21.94;46.24;101937.13;3588086;39;20081;-64
2022/08/31 08:30:07;;;;;;;3.85;2.00;;;;;;;22.05;46.07;101939.75;3592314;39;20084;-64
2022/08/31 08:32:34;;;;;;;4.22;1.95;;;;;;;22.13;46.34;101936.28;3591885;39;20062;-64
2022/08/31 08:35:00;;;;;;;4.25;2.10;;;;;;;22.22;46.29;101938.19;3591180;39;20047;-64
2022/08/31 08:37:26;;;;;;;2.50;2.00;;;;;;;22.26;46.04;101947.84;3588443;39;20063;-64
2022/08/31 08:39:54;;;;;;;4.47;2.10;;;;;;;22.29;46.33;101946.69;3589639;39;20064;-64
2022/08/31 08:42:22;;;;;;;3.55;2.65;;;;;;;22.38;45.60;101945.84;3588543;39;20580;-64
2022/08/31 08:44:48;;;;;;;4.75;2.20;;;;;;;22.31;46.18;101947.44;3592004;39;20314;-64
2022/08/31 08:47:22;;;;;;;2.88;2.22;;;;;;;22.24;47.00;101950.75;3590393;39;20294;-63
2022/08/31 08:49:53;;;;;;;2.67;2.47;;;;;;;22.31;45.69;101945.56;3590648;39;20043;-64
2022/08/31 08:52:40;;;;;;;4.70;2.20;;;;;;;22.45;46.46;101933.28;3591124;39;20133;-64
2022/08/31 08:55:14;;;;;;;3.13;2.40;;;;;;;22.48;45.66;101941.22;3589706;39;20043;-64
2022/08/31 08:57:44;;;;;;;4.00;2.25;;;;;;;22.57;46.41;101937.59;3590064;39;20464;-64
2022/08/31 09:00:20;;;;;;;3.78;2.20;;;;;;;22.71;45.52;101941.78;3579712;39;20402;-64
2022/08/31 09:02:56;;;;;;;2.15;2.05;;;;;;;22.77;45.85;101946.69;3586441;39;20133;-64
2022/08/31 09:06:05;;;;;;;3.75;2.42;;;;;;;22.74;45.74;101938.75;3591314;39;20158;-64
2022/08/31 09:08:40;;;;;;;2.83;2.50;;;;;;;22.79;45.48;101932.81;3592978;39;20487;-64
2022/08/31 09:11:58;;;;;;;3.90;2.28;;;;;;;23.14;44.81;101929.41;3587822;39;20043;-64
2022/08/31 09:14:58;;;;;;;4.68;2.47;;;;;;;23.46;43.75;101925.38;3590237;39;20072;-64
2022/08/31 09:17:49;;;;;;;3.78;2.38;;;;;;;23.59;43.33;101925.88;3588871;39;20071;-64
2022/08/31 09:20:16;;;;;;;3.58;2.97;;;;;;;23.81;43.97;101930.97;3587027;39;20071;-64
2022/08/31 09:22:49;;;;;;;3.13;2.47;;;;;;;23.99;43.45;101932.88;3590936;39;20125;-64
2022/08/31 09:25:28;;;;;;;2.35;2.15;;;;;;;24.02;43.04;101905.09;3577389;40;20062;-63
2022/08/31 09:27:59;;;;;;;5.07;2.50;;;;;;;24.42;41.96;101928.50;3590364;39;20117;-63
2022/08/31 09:30:51;;;;;;;4.55;2.53;;;;;;;24.76;41.97;101934.09;3587124;39;20048;-63
2022/08/31 09:33:32;;;;;;;3.45;2.60;;;;;;;24.86;41.63;101932.09;3588570;39;20054;-69
2022/08/31 09:36:13;;;;;;;3.47;2.30;;;;;;;24.75;41.76;101925.00;3588360;39;20121;-64
2022/08/31 09:38:40;;;;;;;4.72;2.63;;;;;;;24.52;41.80;101923.78;3591641;39;20048;-62
2022/08/31 09:41:36;;;;;;;5.85;2.55;;;;;;;24.16;42.71;101934.75;3589064;39;20121;-63
2022/08/31 09:44:33;;;;;;;6.05;2.97;;;;;;;24.10;42.60;101932.63;3587663;39;20252;-64
2022/08/31 09:47:47;;;;;;;4.15;2.80;;;;;;;24.31;44.36;101938.69;3589101;39;20094;-63
2022/08/31 09:50:30;;;;;;;4.57;2.95;;;;;;;24.52;43.28;101940.28;3588006;39;20113;-64
2022/08/31 09:56:22;;;;;;;7.60;3.20;;;;;;;25.02;40.89;101925.84;3590109;39;20164;-64
2022/08/31 09:58:51;;;;;;;4.40;2.63;;;;;;;24.82;42.21;101930.72;3591006;39;20088;-64
2022/08/31 10:01:43;;;;;;;5.90;3.10;;;;;;;25.06;43.33;101915.41;3591031;39;20068;-64
2022/08/31 10:04:31;;;;;;;4.72;2.80;;;;;;;25.49;41.70;101914.41;3591247;39;20178;-64
2022/08/31 10:07:36;;;;;;;3.17;2.88;;;;;;;25.96;41.13;101921.31;3591262;39;20054;-64
2022/08/31 10:10:16;;;;;;;5.78;3.00;;;;;;;26.27;41.33;101918.75;3592482;39;20322;-64
2022/08/31 10:12:56;;;;;;;4.75;2.88;;;;;;;26.53;39.67;101916.72;3590013;39;20060;-65
2022/08/31 10:15:57;;;;;;;3.63;2.60;;;;;;;26.50;39.23;101914.31;3589495;39;20388;-65
2022/08/31 10:19:00;;;;;;;5.75;2.95;;;;;;;26.57;39.93;101923.59;3590350;39;20638;-64
2022/08/31 10:21:50;;;;;;;3.03;2.60;;;;;;;26.67;38.53;101895.84;3576234;39;20138;-64
2022/08/31 10:24:42;;;;;;;4.18;2.80;;;;;;;26.94;38.96;101908.38;3589301;39;20063;-65
2022/08/31 10:27:19;;;;;;;3.72;2.70;;;;;;;27.00;38.20;101891.13;3589205;39;20055;-65
2022/08/31 10:29:56;;;;;;;4.57;3.20;;;;;;;27.37;37.78;101910.84;3591039;39;20047;-65
2022/08/31 10:32:41;;;;;;;6.70;3.63;;;;;;;27.46;38.19;101912.53;3589408;39;20130;-65
2022/08/31 10:35:41;;;;;;;3.78;3.38;;;;;;;27.36;37.87;101912.75;3588513;39;20048;-65
2022/08/31 10:38:42;;;;;;;5.90;3.53;;;;;;;27.48;39.26;101905.81;3588817;39;20292;-65
2022/08/31 10:41:29;;;;;;;3.88;2.95;;;;;;;27.48;38.12;101905.81;3587429;39;20364;-65
2022/08/31 10:44:25;;;;;;;5.88;3.10;;;;;;;27.67;38.84;101895.34;3591939;39;20055;-66
2022/08/31 10:46:53;;;;;;;3.70;3.03;;;;;;;27.71;37.54;101893.94;3591812;39;20118;-66
2022/08/31 10:49:20;;;;;;;4.70;3.25;;;;;;;27.86;36.30;101896.81;3572546;39;20064;-65
2022/08/31 10:52:08;;;;;;;6.30;3.10;;;;;;;27.59;37.03;101906.44;3592022;39;20063;-66
2022/08/31 10:55:08;;;;;;;4.72;2.92;;;;;;;26.84;37.68;101816.66;3590556;39;20411;-66
2022/08/31 10:57:59;;;;;;;5.18;3.05;;;;;;;27.57;37.13;101901.09;3591312;39;20051;-66
2022/08/31 11:00:41;;;;;;;5.80;3.10;;;;;;;27.75;37.31;101906.34;3589681;39;20064;-65
2022/08/31 11:03:53;;;;;;;10.07;3.03;;;;;;;28.09;37.75;101905.13;3589786;39;20353;-65
2022/08/31 11:06:45;;;;;;;3.17;2.85;;;;;;;28.39;37.01;101912.50;3586555;39;20067;-64
2022/08/31 11:09:24;;;;;;;4.82;2.80;;;;;;;28.44;35.71;101867.69;3589061;39;20044;-65
2022/08/31 11:12:06;;;;;;;9.48;2.80;;;;;;;28.97;35.58;101900.88;3589461;39;20058;-64
2022/08/31 11:14:49;;;;;;;5.45;2.88;;;;;;;28.93;35.07;101895.72;3589634;39;20086;-64
2022/08/31 11:17:44;;;;;;;6.35;3.63;;;;;;;28.52;35.46;101905.50;3587555;39;20329;-65
2022/08/31 11:20:55;;;;;;;4.68;3.15;;;;;;;28.43;35.68;101899.19;3589727;39;20054;-64
2022/08/31 11:23:30;;;;;;;4.47;2.78;;;;;;;28.75;36.05;101906.31;3587069;39;20146;-65
2022/08/31 11:26:53;;;;;;;3.75;3.25;;;;;;;28.66;35.16;101905.50;3587006;39;20052;-64
2022/08/31 11:30:07;;;;;;;5.57;3.17;;;;;;;28.49;36.58;101887.38;3580619;39;20052;-65
2022/08/31 11:32:49;;;;;;;4.75;3.05;;;;;;;28.41;36.54;101888.28;3583788;39;20388;-64
2022/08/31 11:36:15;;;;;;;4.95;3.00;;;;;;;28.44;37.22;101895.34;3591399;39;20417;-65
2022/08/31 11:39:02;;;;;;;7.13;2.70;;;;;;;28.29;37.54;101891.66;3591426;39;20067;-64
2022/08/31 11:41:45;;;;;;;4.38;2.92;;;;;;;28.63;36.89;101891.19;3589190;39;20055;-64
2022/08/31 11:44:30;;;;;;;5.00;3.05;;;;;;;29.19;35.94;101876.97;3590045;39;20052;-66
2022/08/31 11:47:24;;;;;;;2.90;2.60;;;;;;;29.68;35.20;101879.94;3589608;39;20067;-65
2022/08/31 11:49:54;;;;;;;8.43;3.30;;;;;;;29.51;34.77;101881.19;3590791;39;20055;-65
2022/08/31 11:52:23;;;;;;;3.90;2.72;;;;;;;29.61;34.26;101866.00;3590349;39;20109;-64
2022/08/31 11:54:49;;;;;;;4.35;2.70;;;;;;;29.60;34.48;101868.97;3588194;39;20051;-66
2022/08/31 11:58:06;;;;;;;3.90;2.53;;;;;;;29.11;34.45;101875.13;3589049;39;20052;-65
2022/08/31 12:00:58;;;;;;;4.30;2.83;;;;;;;29.00;35.10;101873.69;3586831;39;20056;-65
2022/08/31 12:03:54;;;;;;;9.23;3.22;;;;;;;28.93;35.99;101864.44;3589518;39;20140;-64